Time;durP1;ratioP1;P1;durP2;ratioP2;P2;SDS_P1;SDS_P2;PMS_P1;PMS_P2;Temp;Humidity;BMP_temperature;BMP_pressure;BME280_temperature;BME280_humidity;BME280_pressure;Samples;Min_cycle;Max_cycle;Signal;HPM_P1;HPM_P2
2023/10/28 00:02:20;;;;;;;1.42;1.33;;;17.60;48.40;;;;;;6168357;23;20150;-86
2023/10/28 00:04:51;;;;;;;1.73;1.30;;;17.60;48.50;;;;;;6219423;23;20138;-86
2023/10/28 00:07:17;;;;;;;2.20;1.20;;;17.70;48.50;;;;;;6219288;23;20131;-85
2023/10/28 00:09:43;;;;;;;1.50;1.40;;;17.60;48.50;;;;;;6143571;23;20172;-86
2023/10/28 00:12:12;;;;;;;1.35;1.23;;;17.60;48.50;;;;;;6167833;23;20845;-85
2023/10/28 00:14:38;;;;;;;1.42;1.33;;;17.60;48.50;;;;;;6193177;23;20142;-85
2023/10/28 00:17:09;;;;;;;2.55;1.30;;;17.60;48.50;;;;;;6168495;23;20177;-85
2023/10/28 00:19:35;;;;;;;1.27;1.15;;;17.60;48.60;;;;;;6118616;23;20154;-86
2023/10/28 00:22:01;;;;;;;2.55;1.27;;;17.70;48.60;;;;;;6193505;23;20253;-87
2023/10/28 00:24:28;;;;;;;1.42;1.33;;;17.60;48.60;;;;;;6167515;23;20590;-86
2023/10/28 00:26:54;;;;;;;1.63;1.50;;;17.60;48.60;;;;;;6143572;23;20146;-85
2023/10/28 00:29:19;;;;;;;1.95;1.50;;;17.70;48.60;;;;;;6138941;23;20193;-86
2023/10/28 00:31:47;;;;;;;1.83;1.33;;;17.60;48.60;;;;;;6163686;23;20166;-85
2023/10/28 00:34:19;;;;;;;1.30;1.20;;;17.60;48.60;;;;;;6090228;23;20237;-84
2023/10/28 00:36:49;;;;;;;1.50;1.40;;;17.60;48.70;;;;;;6136962;23;20186;-85
2023/10/28 00:39:16;;;;;;;1.35;1.25;;;17.60;48.60;;;;;;6138176;23;20150;-86
2023/10/28 00:41:43;;;;;;;1.20;1.10;;;17.60;48.70;;;;;;6188387;23;20138;-85
2023/10/28 00:44:09;;;;;;;1.30;1.20;;;17.60;48.70;;;;;;6188206;23;20131;-85
2023/10/28 00:46:36;;;;;;;1.60;1.50;;;17.60;48.70;;;;;;6187720;23;20146;-85
2023/10/28 00:49:05;;;;;;;1.50;1.40;;;17.70;48.70;;;;;;6187653;23;20555;-85
2023/10/28 00:51:32;;;;;;;1.27;1.17;;;17.60;48.70;;;;;;6163653;23;20159;-86
2023/10/28 00:53:57;;;;;;;2.00;1.30;;;17.60;48.70;;;;;;6162419;23;20455;-86
2023/10/28 00:56:26;;;;;;;1.30;1.20;;;17.60;48.70;;;;;;6163254;23;20184;-86
2023/10/28 00:58:52;;;;;;;1.75;1.30;;;17.60;48.80;;;;;;6162819;23;20567;-85
2023/10/28 01:01:19;;;;;;;1.40;1.30;;;17.50;48.70;;;;;;6137920;23;20327;-85
2023/10/28 01:03:45;;;;;;;1.77;1.50;;;17.60;48.70;;;;;;6162086;23;20699;-85
2023/10/28 01:06:12;;;;;;;1.35;1.23;;;17.60;48.70;;;;;;6137045;23;20174;-85
2023/10/28 01:08:39;;;;;;;1.63;1.20;;;17.60;48.70;;;;;;6186392;23;20586;-85
2023/10/28 01:11:08;;;;;;;1.50;1.40;;;17.60;48.70;;;;;;6162481;23;20142;-86
2023/10/28 01:13:33;;;;;;;1.65;1.30;;;17.60;48.80;;;;;;6136786;23;20494;-86
2023/10/28 01:16:04;;;;;;;1.30;1.15;;;17.60;48.80;;;;;;6187509;23;20162;-85
2023/10/28 01:18:30;;;;;;;1.48;1.33;;;17.60;48.80;;;;;;6161983;23;20147;-86
2023/10/28 01:21:02;;;;;;;2.42;1.38;;;17.60;48.80;;;;;;6161652;23;20567;-86
2023/10/28 01:23:27;;;;;;;1.30;1.13;;;17.60;48.80;;;;;;6186775;23;20127;-84
2023/10/28 01:25:54;;;;;;;1.55;1.45;;;17.60;48.80;;;;;;6186929;23;20142;-86
2023/10/28 01:28:24;;;;;;;1.75;1.38;;;17.60;48.90;;;;;;6162108;23;20547;-85
2023/10/28 01:30:50;;;;;;;1.20;1.10;;;17.60;48.90;;;;;;6088169;23;20210;-85
2023/10/28 01:33:16;;;;;;;1.17;1.08;;;17.60;48.90;;;;;;6157206;23;20479;-86
2023/10/28 01:35:42;;;;;;;1.45;1.27;;;17.60;48.90;;;;;;6132378;23;20230;-85
2023/10/28 01:38:08;;;;;;;1.48;1.38;;;17.60;48.90;;;;;;6132857;23;20132;-86
2023/10/28 01:40:33;;;;;;;1.30;1.20;;;17.60;48.90;;;;;;6156352;23;20527;-84
2023/10/28 01:42:59;;;;;;;1.30;1.20;;;17.60;48.90;;;;;;6156382;23;20132;-85
2023/10/28 01:45:26;;;;;;;1.48;1.30;;;17.50;48.90;;;;;;6108542;23;20151;-85
2023/10/28 01:47:54;;;;;;;1.23;1.13;;;17.60;49.00;;;;;;6132330;23;20132;-85
2023/10/28 01:50:21;;;;;;;2.58;1.30;;;17.50;49.00;;;;;;6108796;23;20487;-86
2023/10/28 01:52:47;;;;;;;1.50;1.40;;;17.50;49.00;;;;;;6108344;23;20151;-85
2023/10/28 01:55:17;;;;;;;1.50;1.15;;;17.50;49.00;;;;;;6107095;23;20527;-85
2023/10/28 01:57:44;;;;;;;1.40;1.30;;;17.50;49.00;;;;;;6131294;23;20186;-86
2023/10/28 02:00:12;;;;;;;1.70;1.20;;;17.60;49.00;;;;;;6156803;23;20182;-85
2023/10/28 02:02:41;;;;;;;1.45;1.35;;;17.50;49.10;;;;;;6107967;23;20151;-86
2023/10/28 02:05:09;;;;;;;1.30;1.20;;;17.50;49.10;;;;;;6132124;23;20179;-85
2023/10/28 02:07:35;;;;;;;2.58;1.50;;;17.50;49.10;;;;;;6132001;23;20197;-86
2023/10/28 02:10:02;;;;;;;1.80;1.23;;;17.50;49.10;;;;;;6156875;23;20144;-85
2023/10/28 02:12:30;;;;;;;1.42;1.33;;;17.50;49.10;;;;;;6157818;23;20499;-86
2023/10/28 02:14:57;;;;;;;1.50;1.40;;;17.50;49.10;;;;;;6155813;23;20163;-85
2023/10/28 02:17:25;;;;;;;1.50;1.40;;;17.50;49.10;;;;;;6157893;23;20237;-85
2023/10/28 02:19:51;;;;;;;1.95;1.42;;;17.50;49.10;;;;;;6082241;23;20457;-86
2023/10/28 02:22:17;;;;;;;1.20;1.10;;;17.50;49.10;;;;;;6156549;23;20191;-85
2023/10/28 02:24:44;;;;;;;1.42;1.08;;;17.50;49.70;;;;;;6131994;23;20183;-85
2023/10/28 02:27:11;;;;;;;1.50;1.40;;;17.60;49.00;;;;;;6156263;23;20146;-85
2023/10/28 02:29:40;;;;;;;3.47;1.30;;;17.50;49.10;;;;;;6116730;23;20240;-85
2023/10/28 02:32:09;;;;;;;1.50;1.40;;;17.50;49.10;;;;;;6136736;23;20162;-85
2023/10/28 02:34:41;;;;;;;1.48;1.20;;;17.50;49.10;;;;;;6087552;23;20158;-86
2023/10/28 02:37:08;;;;;;;1.15;1.05;;;17.50;49.10;;;;;;6112555;23;20182;-85
2023/10/28 02:39:33;;;;;;;1.40;1.30;;;17.50;49.20;;;;;;6161862;23;20221;-85
2023/10/28 02:42:01;;;;;;;1.30;1.20;;;17.60;49.10;;;;;;6162229;23;20147;-85
2023/10/28 02:44:30;;;;;;;1.42;1.20;;;17.50;49.10;;;;;;6137607;23;20590;-86
2023/10/28 02:46:58;;;;;;;1.38;1.25;;;17.50;49.30;;;;;;6112849;23;20161;-85
2023/10/28 02:49:27;;;;;;;1.38;1.15;;;17.50;49.30;;;;;;6136748;23;20158;-86
2023/10/28 02:51:53;;;;;;;1.20;1.10;;;17.60;49.20;;;;;;6188259;23;20130;-86
2023/10/28 02:54:20;;;;;;;2.17;1.10;;;17.50;49.20;;;;;;6163327;23;20538;-86
2023/10/28 02:56:48;;;;;;;1.48;1.20;;;17.50;49.20;;;;;;6139637;23;20174;-85
2023/10/28 02:59:15;;;;;;;1.40;1.30;;;17.50;49.30;;;;;;6113424;23;20158;-86
2023/10/28 03:01:45;;;;;;;1.60;1.50;;;17.50;49.30;;;;;;6139290;23;20143;-85
2023/10/28 03:04:12;;;;;;;1.17;1.08;;;17.50;49.30;;;;;;6137707;23;20233;-85
2023/10/28 03:06:38;;;;;;;1.55;1.40;;;17.50;49.30;;;;;;6163665;23;20157;-85
2023/10/28 03:09:06;;;;;;;1.30;1.20;;;17.50;49.30;;;;;;6138794;23;20147;-85
2023/10/28 03:11:31;;;;;;;1.30;1.20;;;17.50;49.20;;;;;;6163536;23;20147;-85
2023/10/28 03:13:57;;;;;;;1.65;1.30;;;17.50;49.20;;;;;;6163718;23;20201;-85
2023/10/28 03:16:23;;;;;;;1.75;1.30;;;17.50;49.30;;;;;;6138992;23;20182;-86
2023/10/28 03:18:51;;;;;;;1.50;1.20;;;17.50;49.30;;;;;;6163062;23;20131;-85
2023/10/28 03:21:17;;;;;;;1.40;1.30;;;17.50;49.30;;;;;;6188327;23;20143;-85
2023/10/28 03:23:44;;;;;;;1.30;1.20;;;17.50;49.40;;;;;;6187653;23;20131;-85
2023/10/28 03:26:10;;;;;;;1.50;1.40;;;17.50;49.40;;;;;;6189443;23;20189;-86
2023/10/28 03:28:36;;;;;;;1.52;1.33;;;17.50;49.30;;;;;;6138264;23;20150;-86
2023/10/28 03:31:12;;;;;;;1.50;1.40;;;17.50;49.40;;;;;;6162531;23;20226;-86
2023/10/28 03:33:39;;;;;;;1.60;1.50;;;17.50;49.40;;;;;;6187929;23;20217;-85
2023/10/28 03:36:09;;;;;;;1.40;1.30;;;17.50;49.40;;;;;;6137826;23;20241;-86
2023/10/28 03:38:39;;;;;;;1.30;1.20;;;17.50;49.40;;;;;;6162788;23;20143;-87
2023/10/28 03:41:07;;;;;;;1.20;1.10;;;17.40;49.40;;;;;;6137064;23;20155;-85
2023/10/28 03:43:37;;;;;;;1.33;1.20;;;17.40;49.40;;;;;;6187672;23;20161;-86
2023/10/28 03:46:09;;;;;;;1.40;1.30;;;17.50;49.40;;;;;;6162207;23;20150;-86
2023/10/28 03:48:40;;;;;;;1.20;1.10;;;17.50;49.40;;;;;;6113231;23;20155;-85
2023/10/28 03:51:06;;;;;;;1.33;1.20;;;17.50;49.40;;;;;;6112699;23;20194;-85
2023/10/28 03:53:32;;;;;;;1.20;1.10;;;17.40;49.40;;;;;;6187869;23;20142;-84
2023/10/28 03:56:00;;;;;;;2.35;1.30;;;17.50;49.40;;;;;;6135436;23;20182;-86
2023/10/28 03:58:26;;;;;;;2.60;1.48;;;17.50;49.50;;;;;;6184838;23;20135;-86
2023/10/28 04:00:53;;;;;;;1.60;1.50;;;17.40;49.40;;;;;;6185364;23;20131;-86
2023/10/28 04:03:20;;;;;;;2.03;1.30;;;17.40;49.30;;;;;;6161691;23;20238;-86
2023/10/28 04:05:51;;;;;;;1.60;1.50;;;17.50;49.50;;;;;;6160187;23;20590;-85
2023/10/28 04:08:20;;;;;;;1.50;1.40;;;17.50;49.50;;;;;;6134971;23;20154;-86
2023/10/28 04:10:52;;;;;;;1.45;1.15;;;17.40;49.40;;;;;;6136340;23;20249;-85
2023/10/28 04:13:25;;;;;;;1.30;1.20;;;17.40;49.40;;;;;;6161896;23;20141;-86
2023/10/28 04:15:53;;;;;;;1.42;1.25;;;17.40;49.40;;;;;;6137735;23;20193;-85
2023/10/28 04:18:21;;;;;;;1.30;1.20;;;17.50;49.40;;;;;;6160524;23;20163;-84
2023/10/28 04:20:51;;;;;;;2.33;1.45;;;17.50;49.40;;;;;;6135971;23;20173;-85
2023/10/28 04:23:21;;;;;;;1.23;1.13;;;17.50;49.40;;;;;;6161234;23;20139;-85
2023/10/28 04:25:48;;;;;;;1.33;1.23;;;17.50;49.40;;;;;;6161360;23;20131;-85
2023/10/28 04:28:21;;;;;;;1.60;1.33;;;17.50;49.40;;;;;;6130402;23;20590;-86
2023/10/28 04:30:56;;;;;;;1.40;1.27;;;17.50;49.50;;;;;;6082698;23;20199;-85
2023/10/28 04:33:22;;;;;;;1.52;1.30;;;17.50;49.60;;;;;;6071811;23;20175;-85
2023/10/28 04:35:47;;;;;;;1.40;1.30;;;17.50;49.50;;;;;;6071827;23;20204;-84
2023/10/28 04:38:16;;;;;;;1.27;1.17;;;17.40;49.50;;;;;;6072002;23;20153;-84
2023/10/28 04:40:43;;;;;;;1.30;1.20;;;17.50;49.70;;;;;;6071984;23;20593;-84
2023/10/28 04:43:09;;;;;;;1.40;1.30;;;17.50;49.60;;;;;;6072342;23;20148;-85
2023/10/28 04:45:46;;;;;;;1.30;1.20;;;17.40;49.50;;;;;;6096248;23;20137;-85
2023/10/28 04:48:14;;;;;;;1.38;1.27;;;17.50;49.60;;;;;;6023575;23;20152;-86
2023/10/28 04:50:44;;;;;;;1.30;1.10;;;17.40;49.50;;;;;;6096115;23;20153;-86
2023/10/28 04:53:11;;;;;;;1.30;1.20;;;17.40;49.60;;;;;;6071154;23;20156;-86
2023/10/28 04:55:41;;;;;;;1.30;1.20;;;17.40;49.60;;;;;;6071648;23;20157;-84
2023/10/28 04:58:11;;;;;;;1.63;1.38;;;17.40;49.50;;;;;;6051351;23;20152;-86
2023/10/28 05:00:37;;;;;;;1.45;1.20;;;17.50;49.60;;;;;;6056272;23;20152;-85
2023/10/28 05:03:07;;;;;;;2.28;1.25;;;17.50;49.60;;;;;;6104920;23;20152;-86
2023/10/28 05:05:33;;;;;;;1.20;1.10;;;17.40;49.50;;;;;;6031762;23;20152;-87
2023/10/28 05:08:04;;;;;;;1.27;1.17;;;17.40;49.50;;;;;;6078997;23;20211;-86
2023/10/28 05:10:33;;;;;;;1.42;1.33;;;17.40;49.50;;;;;;6054192;23;20159;-86
2023/10/28 05:13:00;;;;;;;1.27;1.10;;;17.50;49.60;;;;;;6080810;23;20183;-85
2023/10/28 05:15:26;;;;;;;1.58;1.48;;;17.50;49.60;;;;;;6022378;23;20165;-85
2023/10/28 05:17:52;;;;;;;1.42;1.33;;;17.40;49.60;;;;;;6044985;23;20521;-85
2023/10/28 05:20:21;;;;;;;2.50;1.35;;;17.50;49.70;;;;;;6045126;23;20677;-85
2023/10/28 05:22:51;;;;;;;1.40;1.00;;;17.40;49.60;;;;;;6044075;23;20158;-85
2023/10/28 05:25:18;;;;;;;1.38;1.17;;;17.40;49.50;;;;;;6067935;23;20181;-86
2023/10/28 05:27:44;;;;;;;1.52;1.30;;;17.40;49.50;;;;;;6043794;23;20504;-85
2023/10/28 05:30:11;;;;;;;1.13;1.10;;;17.50;49.60;;;;;;6087690;23;20223;-85
2023/10/28 05:32:39;;;;;;;1.20;1.10;;;17.40;49.60;;;;;;6077177;23;20631;-85
2023/10/28 05:35:08;;;;;;;1.55;1.15;;;17.50;49.70;;;;;;6053680;23;20167;-86
2023/10/28 05:37:34;;;;;;;1.23;1.13;;;17.40;49.60;;;;;;6054486;23;20620;-86
2023/10/28 05:40:06;;;;;;;1.73;1.17;;;17.50;49.60;;;;;;6100480;23;20215;-85
2023/10/28 05:42:38;;;;;;;1.63;1.20;;;17.50;49.60;;;;;;6054518;23;20249;-85
2023/10/28 05:45:09;;;;;;;1.33;1.23;;;17.40;49.60;;;;;;6057209;23;20159;-85
2023/10/28 05:47:37;;;;;;;1.42;1.33;;;17.40;49.60;;;;;;6058026;23;20178;-86
2023/10/28 05:50:10;;;;;;;1.17;1.08;;;17.40;49.60;;;;;;6057843;23;20223;-85
2023/10/28 05:52:39;;;;;;;1.05;1.05;;;17.50;49.70;;;;;;6058577;23;20159;-86
2023/10/28 05:55:07;;;;;;;1.42;1.13;;;17.40;49.60;;;;;;6081826;23;20293;-85
2023/10/28 05:57:32;;;;;;;1.23;1.20;;;17.40;49.70;;;;;;6105303;23;20202;-85
2023/10/28 06:00:00;;;;;;;1.33;1.23;;;17.40;49.70;;;;;;6105727;23;20441;-85
2023/10/28 06:02:30;;;;;;;1.58;1.02;;;17.40;49.70;;;;;;6082004;23;20167;-85
2023/10/28 06:05:03;;;;;;;1.20;1.10;;;17.40;49.60;;;;;;6092844;23;20151;-85
2023/10/28 06:07:35;;;;;;;1.00;1.00;;;17.40;49.60;;;;;;6141937;23;20241;-85
2023/10/28 06:10:01;;;;;;;1.50;1.30;;;17.40;49.60;;;;;;6165275;23;20164;-85
2023/10/28 06:12:28;;;;;;;1.33;1.23;;;17.40;49.60;;;;;;6166547;23;20162;-85
2023/10/28 06:14:55;;;;;;;1.42;1.27;;;17.40;49.70;;;;;;6167538;23;20155;-85
2023/10/28 06:17:21;;;;;;;1.30;1.20;;;17.40;49.60;;;;;;6143237;23;20182;-85
2023/10/28 06:19:48;;;;;;;1.40;1.23;;;17.40;49.60;;;;;;6143215;23;20638;-86
2023/10/28 06:22:14;;;;;;;1.30;1.20;;;17.50;49.70;;;;;;6191736;23;20609;-85
2023/10/28 06:24:40;;;;;;;1.33;1.00;;;17.40;49.60;;;;;;6191826;23;20151;-85
2023/10/28 06:27:07;;;;;;;2.10;1.52;;;17.40;49.60;;;;;;6168380;23;20166;-85
2023/10/28 06:29:35;;;;;;;1.65;1.33;;;17.40;49.70;;;;;;6201807;23;20221;-86
2023/10/28 06:32:02;;;;;;;1.40;1.20;;;17.50;49.80;;;;;;6180684;23;20165;-86
2023/10/28 06:34:28;;;;;;;1.30;1.02;;;17.40;49.70;;;;;;6153204;23;20154;-86
2023/10/28 06:36:57;;;;;;;1.33;1.23;;;17.40;49.70;;;;;;6178002;23;20180;-86
2023/10/28 06:39:36;;;;;;;2.28;1.48;;;17.40;49.60;;;;;;6155008;23;20533;-86
2023/10/28 06:42:20;;;;;;;1.23;1.13;;;17.40;49.20;;;;;;6177368;23;20157;-86
2023/10/28 06:44:54;;;;;;;1.30;1.20;;;17.50;48.90;;;;;;6151884;23;20147;-86
2023/10/28 06:47:27;;;;;;;1.30;1.20;;;17.50;48.70;;;;;;6151020;23;20225;-86
2023/10/28 06:50:06;;;;;;;1.20;1.10;;;17.60;48.40;;;;;;6094803;23;20186;-86
2023/10/28 06:52:42;;;;;;;1.38;1.27;;;17.60;48.30;;;;;;6046652;23;20152;-87
